sensor_id;sensor_type;location;lat;lon;timestamp;P1;durP1;ratioP1;P2;durP2;ratioP2
12445;SDS011;6287;50.984;7.022;2023-06-26T00:01:52;5.03;;;4.35;;
12445;SDS011;6287;50.984;7.022;2023-06-26T00:04:20;5.05;;;4.40;;
12445;SDS011;6287;50.984;7.022;2023-06-26T00:06:50;5.80;;;4.88;;
12445;SDS011;6287;50.984;7.022;2023-06-26T00:09:18;5.13;;;4.63;;
12445;SDS011;6287;50.984;7.022;2023-06-26T00:11:46;5.47;;;4.45;;
12445;SDS011;6287;50.984;7.022;2023-06-26T00:14:12;5.03;;;4.53;;
12445;SDS011;6287;50.984;7.022;2023-06-26T00:16:40;7.32;;;4.45;;
12445;SDS011;6287;50.984;7.022;2023-06-26T00:19:08;4.88;;;4.30;;
12445;SDS011;6287;50.984;7.022;2023-06-26T00:21:36;5.25;;;4.75;;
12445;SDS011;6287;50.984;7.022;2023-06-26T00:24:11;4.80;;;4.05;;
12445;SDS011;6287;50.984;7.022;2023-06-26T00:26:37;5.47;;;4.57;;
12445;SDS011;6287;50.984;7.022;2023-06-26T00:29:03;6.00;;;4.85;;
12445;SDS011;6287;50.984;7.022;2023-06-26T00:31:31;5.18;;;4.15;;
12445;SDS011;6287;50.984;7.022;2023-06-26T00:33:56;5.95;;;4.72;;
12445;SDS011;6287;50.984;7.022;2023-06-26T00:36:22;4.82;;;4.45;;
12445;SDS011;6287;50.984;7.022;2023-06-26T00:38:48;7.63;;;4.75;;
12445;SDS011;6287;50.984;7.022;2023-06-26T00:41:14;4.50;;;4.10;;
12445;SDS011;6287;50.984;7.022;2023-06-26T00:43:40;4.60;;;4.20;;
12445;SDS011;6287;50.984;7.022;2023-06-26T00:46:09;4.80;;;4.28;;
12445;SDS011;6287;50.984;7.022;2023-06-26T00:48:36;5.40;;;4.90;;
12445;SDS011;6287;50.984;7.022;2023-06-26T00:51:02;5.22;;;4.45;;
12445;SDS011;6287;50.984;7.022;2023-06-26T00:53:28;6.07;;;5.20;;
12445;SDS011;6287;50.984;7.022;2023-06-26T00:55:58;5.18;;;4.40;;
12445;SDS011;6287;50.984;7.022;2023-06-26T00:58:25;6.40;;;4.47;;
12445;SDS011;6287;50.984;7.022;2023-06-26T01:00:51;5.78;;;4.68;;
12445;SDS011;6287;50.984;7.022;2023-06-26T01:03:17;5.00;;;4.50;;
12445;SDS011;6287;50.984;7.022;2023-06-26T01:05:46;4.85;;;4.38;;
12445;SDS011;6287;50.984;7.022;2023-06-26T01:08:16;7.88;;;4.68;;
12445;SDS011;6287;50.984;7.022;2023-06-26T01:10:45;5.63;;;4.72;;
12445;SDS011;6287;50.984;7.022;2023-06-26T01:13:13;5.07;;;4.57;;
12445;SDS011;6287;50.984;7.022;2023-06-26T01:15:42;5.13;;;4.63;;
12445;SDS011;6287;50.984;7.022;2023-06-26T01:18:10;4.97;;;4.40;;
12445;SDS011;6287;50.984;7.022;2023-06-26T01:20:36;5.43;;;4.93;;
12445;SDS011;6287;50.984;7.022;2023-06-26T01:23:20;4.97;;;4.47;;
12445;SDS011;6287;50.984;7.022;2023-06-26T01:28:35;5.45;;;4.95;;
12445;SDS011;6287;50.984;7.022;2023-06-26T01:31:05;5.43;;;4.88;;
12445;SDS011;6287;50.984;7.022;2023-06-26T01:33:32;5.85;;;4.93;;
12445;SDS011;6287;50.984;7.022;2023-06-26T01:36:00;5.10;;;4.55;;
12445;SDS011;6287;50.984;7.022;2023-06-26T01:38:26;5.53;;;5.03;;
12445;SDS011;6287;50.984;7.022;2023-06-26T01:40:55;5.15;;;4.63;;
12445;SDS011;6287;50.984;7.022;2023-06-26T01:46:18;5.38;;;4.88;;
12445;SDS011;6287;50.984;7.022;2023-06-26T01:48:55;5.40;;;4.90;;
12445;SDS011;6287;50.984;7.022;2023-06-26T01:51:35;5.43;;;4.93;;
12445;SDS011;6287;50.984;7.022;2023-06-26T01:54:10;5.20;;;4.70;;
12445;SDS011;6287;50.984;7.022;2023-06-26T01:56:41;4.90;;;4.40;;
12445;SDS011;6287;50.984;7.022;2023-06-26T01:59:09;5.75;;;4.68;;
12445;SDS011;6287;50.984;7.022;2023-06-26T02:01:39;5.45;;;4.90;;
12445;SDS011;6287;50.984;7.022;2023-06-26T02:04:04;6.55;;;5.03;;
12445;SDS011;6287;50.984;7.022;2023-06-26T02:06:37;6.22;;;5.10;;
12445;SDS011;6287;50.984;7.022;2023-06-26T02:09:03;5.65;;;4.65;;
12445;SDS011;6287;50.984;7.022;2023-06-26T02:11:28;5.18;;;4.32;;
12445;SDS011;6287;50.984;7.022;2023-06-26T02:13:59;5.20;;;4.70;;
12445;SDS011;6287;50.984;7.022;2023-06-26T02:16:27;4.72;;;4.15;;
12445;SDS011;6287;50.984;7.022;2023-06-26T02:18:58;4.88;;;4.38;;
12445;SDS011;6287;50.984;7.022;2023-06-26T02:21:28;6.03;;;5.03;;
12445;SDS011;6287;50.984;7.022;2023-06-26T02:23:56;5.63;;;4.55;;
12445;SDS011;6287;50.984;7.022;2023-06-26T02:26:24;7.13;;;5.05;;
12445;SDS011;6287;50.984;7.022;2023-06-26T02:28:49;6.78;;;5.18;;
12445;SDS011;6287;50.984;7.022;2023-06-26T02:31:15;6.18;;;4.65;;
12445;SDS011;6287;50.984;7.022;2023-06-26T02:33:43;6.15;;;5.05;;
12445;SDS011;6287;50.984;7.022;2023-06-26T02:36:10;6.22;;;5.25;;
12445;SDS011;6287;50.984;7.022;2023-06-26T02:38:38;6.15;;;5.35;;
12445;SDS011;6287;50.984;7.022;2023-06-26T02:41:08;6.43;;;4.82;;
12445;SDS011;6287;50.984;7.022;2023-06-26T02:43:33;7.30;;;5.03;;
12445;SDS011;6287;50.984;7.022;2023-06-26T02:46:01;5.88;;;5.28;;
12445;SDS011;6287;50.984;7.022;2023-06-26T02:48:27;6.30;;;4.90;;
12445;SDS011;6287;50.984;7.022;2023-06-26T02:50:52;6.07;;;5.03;;
12445;SDS011;6287;50.984;7.022;2023-06-26T02:53:20;5.38;;;4.85;;
12445;SDS011;6287;50.984;7.022;2023-06-26T02:55:46;5.88;;;4.72;;
12445;SDS011;6287;50.984;7.022;2023-06-26T02:58:12;5.57;;;5.00;;
12445;SDS011;6287;50.984;7.022;2023-06-26T03:00:40;5.95;;;4.70;;
12445;SDS011;6287;50.984;7.022;2023-06-26T03:03:08;5.30;;;4.80;;
12445;SDS011;6287;50.984;7.022;2023-06-26T03:05:38;7.10;;;4.63;;
12445;SDS011;6287;50.984;7.022;2023-06-26T03:08:04;5.55;;;4.47;;
12445;SDS011;6287;50.984;7.022;2023-06-26T03:10:32;5.65;;;5.05;;
12445;SDS011;6287;50.984;7.022;2023-06-26T03:13:00;5.35;;;4.78;;
12445;SDS011;6287;50.984;7.022;2023-06-26T03:15:31;4.85;;;4.35;;
12445;SDS011;6287;50.984;7.022;2023-06-26T03:17:56;5.82;;;5.00;;
12445;SDS011;6287;50.984;7.022;2023-06-26T03:20:22;6.45;;;4.82;;
12445;SDS011;6287;50.984;7.022;2023-06-26T03:22:49;5.75;;;4.82;;
12445;SDS011;6287;50.984;7.022;2023-06-26T03:25:15;6.57;;;4.70;;
12445;SDS011;6287;50.984;7.022;2023-06-26T03:27:40;5.22;;;4.57;;
12445;SDS011;6287;50.984;7.022;2023-06-26T03:30:06;6.22;;;4.82;;
12445;SDS011;6287;50.984;7.022;2023-06-26T03:32:32;7.63;;;5.03;;
12445;SDS011;6287;50.984;7.022;2023-06-26T03:35:02;7.00;;;4.68;;
12445;SDS011;6287;50.984;7.022;2023-06-26T03:37:30;8.02;;;4.55;;
12445;SDS011;6287;50.984;7.022;2023-06-26T03:39:55;5.20;;;4.70;;
12445;SDS011;6287;50.984;7.022;2023-06-26T03:42:21;6.07;;;4.50;;
12445;SDS011;6287;50.984;7.022;2023-06-26T03:44:52;6.35;;;4.57;;
12445;SDS011;6287;50.984;7.022;2023-06-26T03:47:17;7.00;;;5.05;;
12445;SDS011;6287;50.984;7.022;2023-06-26T03:49:43;7.97;;;4.55;;
12445;SDS011;6287;50.984;7.022;2023-06-26T03:52:11;5.65;;;4.82;;
12445;SDS011;6287;50.984;7.022;2023-06-26T03:54:39;6.18;;;4.93;;
12445;SDS011;6287;50.984;7.022;2023-06-26T03:57:04;7.45;;;4.88;;
12445;SDS011;6287;50.984;7.022;2023-06-26T03:59:35;6.75;;;5.22;;
12445;SDS011;6287;50.984;7.022;2023-06-26T04:02:01;6.60;;;5.18;;
12445;SDS011;6287;50.984;7.022;2023-06-26T04:04:28;5.43;;;4.60;;
12445;SDS011;6287;50.984;7.022;2023-06-26T04:06:57;4.60;;;4.20;;
12445;SDS011;6287;50.984;7.022;2023-06-26T04:09:25;4.30;;;3.90;;
12445;SDS011;6287;50.984;7.022;2023-06-26T04:11:50;6.80;;;4.30;;
12445;SDS011;6287;50.984;7.022;2023-06-26T04:14:16;4.47;;;3.63;;
12445;SDS011;6287;50.984;7.022;2023-06-26T04:16:44;4.50;;;3.55;;
12445;SDS011;6287;50.984;7.022;2023-06-26T04:19:14;4.47;;;3.88;;
12445;SDS011;6287;50.984;7.022;2023-06-26T04:21:40;5.03;;;3.90;;
12445;SDS011;6287;50.984;7.022;2023-06-26T04:24:08;6.28;;;3.88;;
12445;SDS011;6287;50.984;7.022;2023-06-26T04:26:34;4.20;;;3.42;;
12445;SDS011;6287;50.984;7.022;2023-06-26T04:29:00;6.20;;;3.78;;
12445;SDS011;6287;50.984;7.022;2023-06-26T04:31:28;4.35;;;3.95;;
12445;SDS011;6287;50.984;7.022;2023-06-26T04:33:54;4.47;;;3.60;;
12445;SDS011;6287;50.984;7.022;2023-06-26T04:36:20;4.03;;;3.63;;
12445;SDS011;6287;50.984;7.022;2023-06-26T04:38:53;3.90;;;3.40;;
12445;SDS011;6287;50.984;7.022;2023-06-26T04:41:22;4.03;;;3.40;;
12445;SDS011;6287;50.984;7.022;2023-06-26T04:43:47;5.18;;;3.35;;
12445;SDS011;6287;50.984;7.022;2023-06-26T04:46:15;4.00;;;3.55;;
12445;SDS011;6287;50.984;7.022;2023-06-26T04:48:41;3.83;;;3.22;;
12445;SDS011;6287;50.984;7.022;2023-06-26T04:51:06;3.65;;;3.30;;
12445;SDS011;6287;50.984;7.022;2023-06-26T04:53:32;4.63;;;3.55;;
12445;SDS011;6287;50.984;7.022;2023-06-26T04:55:57;3.53;;;3.22;;
12445;SDS011;6287;50.984;7.022;2023-06-26T04:58:23;4.32;;;3.58;;
12445;SDS011;6287;50.984;7.022;2023-06-26T05:00:48;5.38;;;3.25;;
12445;SDS011;6287;50.984;7.022;2023-06-26T05:03:16;4.53;;;3.05;;
12445;SDS011;6287;50.984;7.022;2023-06-26T05:05:43;5.30;;;3.30;;
12445;SDS011;6287;50.984;7.022;2023-06-26T05:08:20;5.30;;;3.60;;
12445;SDS011;6287;50.984;7.022;2023-06-26T05:10:49;3.85;;;3.20;;
12445;SDS011;6287;50.984;7.022;2023-06-26T05:13:15;4.68;;;3.50;;
12445;SDS011;6287;50.984;7.022;2023-06-26T05:15:43;4.40;;;3.10;;
12445;SDS011;6287;50.984;7.022;2023-06-26T05:18:09;5.03;;;3.00;;
12445;SDS011;6287;50.984;7.022;2023-06-26T05:20:35;3.10;;;2.80;;
12445;SDS011;6287;50.984;7.022;2023-06-26T05:23:02;4.00;;;2.80;;
12445;SDS011;6287;50.984;7.022;2023-06-26T05:25:28;4.13;;;3.00;;
12445;SDS011;6287;50.984;7.022;2023-06-26T05:27:57;4.50;;;3.25;;
12445;SDS011;6287;50.984;7.022;2023-06-26T05:30:26;5.53;;;3.38;;
12445;SDS011;6287;50.984;7.022;2023-06-26T05:32:53;3.88;;;3.13;;
12445;SDS011;6287;50.984;7.022;2023-06-26T05:35:20;3.60;;;3.10;;
12445;SDS011;6287;50.984;7.022;2023-06-26T05:37:51;4.88;;;2.78;;
12445;SDS011;6287;50.984;7.022;2023-06-26T05:40:19;3.65;;;2.83;;
12445;SDS011;6287;50.984;7.022;2023-06-26T05:42:53;6.15;;;2.97;;
12445;SDS011;6287;50.984;7.022;2023-06-26T05:45:21;4.78;;;3.00;;
12445;SDS011;6287;50.984;7.022;2023-06-26T05:47:47;3.22;;;2.90;;
12445;SDS011;6287;50.984;7.022;2023-06-26T05:50:17;4.22;;;2.55;;
12445;SDS011;6287;50.984;7.022;2023-06-26T05:52:44;2.70;;;2.50;;
12445;SDS011;6287;50.984;7.022;2023-06-26T05:55:13;3.30;;;2.95;;
12445;SDS011;6287;50.984;7.022;2023-06-26T05:57:39;5.55;;;2.67;;
12445;SDS011;6287;50.984;7.022;2023-06-26T06:00:07;4.72;;;2.90;;
12445;SDS011;6287;50.984;7.022;2023-06-26T06:02:39;4.28;;;2.80;;
12445;SDS011;6287;50.984;7.022;2023-06-26T06:05:07;4.50;;;2.70;;
12445;SDS011;6287;50.984;7.022;2023-06-26T06:07:35;6.25;;;2.97;;
12445;SDS011;6287;50.984;7.022;2023-06-26T06:10:02;4.57;;;3.05;;
12445;SDS011;6287;50.984;7.022;2023-06-26T06:12:33;4.32;;;2.78;;
12445;SDS011;6287;50.984;7.022;2023-06-26T06:15:02;4.32;;;2.78;;
12445;SDS011;6287;50.984;7.022;2023-06-26T06:17:29;5.05;;;3.08;;
12445;SDS011;6287;50.984;7.022;2023-06-26T06:19:58;3.42;;;2.80;;
12445;SDS011;6287;50.984;7.022;2023-06-26T06:22:27;4.60;;;3.17;;
12445;SDS011;6287;50.984;7.022;2023-06-26T06:24:53;3.92;;;2.60;;
12445;SDS011;6287;50.984;7.022;2023-06-26T06:27:21;4.68;;;2.72;;
12445;SDS011;6287;50.984;7.022;2023-06-26T06:29:46;3.88;;;2.90;;
12445;SDS011;6287;50.984;7.022;2023-06-26T06:32:12;4.90;;;3.22;;
12445;SDS011;6287;50.984;7.022;2023-06-26T06:34:37;3.55;;;2.90;;
12445;SDS011;6287;50.984;7.022;2023-06-26T06:37:05;3.75;;;2.63;;
12445;SDS011;6287;50.984;7.022;2023-06-26T06:39:31;6.28;;;3.53;;
12445;SDS011;6287;50.984;7.022;2023-06-26T06:41:57;3.55;;;3.20;;
12445;SDS011;6287;50.984;7.022;2023-06-26T06:44:24;2.80;;;2.33;;
12445;SDS011;6287;50.984;7.022;2023-06-26T06:46:50;3.90;;;2.83;;
12445;SDS011;6287;50.984;7.022;2023-06-26T06:49:18;3.40;;;2.70;;
12445;SDS011;6287;50.984;7.022;2023-06-26T06:51:44;4.20;;;2.65;;
12445;SDS011;6287;50.984;7.022;2023-06-26T06:54:09;3.22;;;2.80;;
12445;SDS011;6287;50.984;7.022;2023-06-26T06:56:35;2.67;;;2.45;;
12445;SDS011;6287;50.984;7.022;2023-06-26T06:59:00;4.90;;;3.20;;
12445;SDS011;6287;50.984;7.022;2023-06-26T07:01:29;3.97;;;2.70;;
12445;SDS011;6287;50.984;7.022;2023-06-26T07:03:54;4.07;;;2.88;;
12445;SDS011;6287;50.984;7.022;2023-06-26T07:06:20;3.47;;;2.60;;
12445;SDS011;6287;50.984;7.022;2023-06-26T07:08:47;3.72;;;2.50;;
12445;SDS011;6287;50.984;7.022;2023-06-26T07:11:16;5.78;;;2.95;;
12445;SDS011;6287;50.984;7.022;2023-06-26T07:13:42;5.60;;;2.90;;
12445;SDS011;6287;50.984;7.022;2023-06-26T07:16:07;4.68;;;2.80;;
12445;SDS011;6287;50.984;7.022;2023-06-26T07:18:37;3.83;;;2.65;;
12445;SDS011;6287;50.984;7.022;2023-06-26T07:21:03;4.05;;;2.85;;
12445;SDS011;6287;50.984;7.022;2023-06-26T07:23:31;3.42;;;2.85;;
12445;SDS011;6287;50.984;7.022;2023-06-26T07:25:59;5.05;;;3.20;;
12445;SDS011;6287;50.984;7.022;2023-06-26T07:28:25;4.82;;;3.10;;
12445;SDS011;6287;50.984;7.022;2023-06-26T07:30:53;4.25;;;3.85;;
12445;SDS011;6287;50.984;7.022;2023-06-26T07:33:19;6.10;;;5.38;;
12445;SDS011;6287;50.984;7.022;2023-06-26T07:35:48;7.40;;;5.38;;
12445;SDS011;6287;50.984;7.022;2023-06-26T07:38:14;6.10;;;5.00;;
12445;SDS011;6287;50.984;7.022;2023-06-26T07:40:42;4.53;;;4.13;;
12445;SDS011;6287;50.984;7.022;2023-06-26T07:43:10;5.38;;;4.43;;
12445;SDS011;6287;50.984;7.022;2023-06-26T07:45:40;5.03;;;3.58;;
12445;SDS011;6287;50.984;7.022;2023-06-26T07:48:06;5.57;;;4.15;;
12445;SDS011;6287;50.984;7.022;2023-06-26T07:50:39;4.30;;;3.88;;
12445;SDS011;6287;50.984;7.022;2023-06-26T07:53:13;6.72;;;5.25;;
12445;SDS011;6287;50.984;7.022;2023-06-26T07:55:39;7.22;;;5.53;;
12445;SDS011;6287;50.984;7.022;2023-06-26T07:58:07;5.85;;;4.53;;
12445;SDS011;6287;50.984;7.022;2023-06-26T08:00:33;5.25;;;3.92;;
12445;SDS011;6287;50.984;7.022;2023-06-26T08:02:58;4.10;;;2.97;;
12445;SDS011;6287;50.984;7.022;2023-06-26T08:05:24;6.60;;;3.13;;
12445;SDS011;6287;50.984;7.022;2023-06-26T08:07:51;5.60;;;2.70;;
12445;SDS011;6287;50.984;7.022;2023-06-26T08:10:16;5.97;;;2.53;;
12445;SDS011;6287;50.984;7.022;2023-06-26T08:12:42;4.28;;;3.38;;
12445;SDS011;6287;50.984;7.022;2023-06-26T08:15:12;3.67;;;2.97;;
12445;SDS011;6287;50.984;7.022;2023-06-26T08:17:43;5.32;;;3.38;;
12445;SDS011;6287;50.984;7.022;2023-06-26T08:20:08;6.15;;;3.00;;
12445;SDS011;6287;50.984;7.022;2023-06-26T08:22:37;3.50;;;2.70;;
12445;SDS011;6287;50.984;7.022;2023-06-26T08:25:07;3.80;;;2.60;;
12445;SDS011;6287;50.984;7.022;2023-06-26T08:27:33;5.13;;;2.92;;
12445;SDS011;6287;50.984;7.022;2023-06-26T08:29:59;4.57;;;2.72;;
12445;SDS011;6287;50.984;7.022;2023-06-26T08:32:30;2.65;;;2.38;;
12445;SDS011;6287;50.984;7.022;2023-06-26T08:34:55;4.85;;;2.63;;
12445;SDS011;6287;50.984;7.022;2023-06-26T08:37:25;5.28;;;3.42;;
12445;SDS011;6287;50.984;7.022;2023-06-26T08:39:51;4.45;;;3.28;;
12445;SDS011;6287;50.984;7.022;2023-06-26T08:42:19;3.10;;;2.80;;
12445;SDS011;6287;50.984;7.022;2023-06-26T08:44:45;4.93;;;2.85;;
12445;SDS011;6287;50.984;7.022;2023-06-26T08:47:11;4.32;;;3.30;;
12445;SDS011;6287;50.984;7.022;2023-06-26T08:49:43;4.75;;;2.60;;
12445;SDS011;6287;50.984;7.022;2023-06-26T08:52:28;3.85;;;3.08;;
12445;SDS011;6287;50.984;7.022;2023-06-26T08:55:15;4.78;;;2.92;;
12445;SDS011;6287;50.984;7.022;2023-06-26T08:57:46;6.22;;;3.28;;
12445;SDS011;6287;50.984;7.022;2023-06-26T09:00:12;5.15;;;3.42;;
12445;SDS011;6287;50.984;7.022;2023-06-26T09:02:42;5.28;;;3.30;;
12445;SDS011;6287;50.984;7.022;2023-06-26T09:05:13;5.32;;;3.38;;
12445;SDS011;6287;50.984;7.022;2023-06-26T09:07:41;7.07;;;2.97;;
12445;SDS011;6287;50.984;7.022;2023-06-26T09:10:07;6.00;;;2.75;;
12445;SDS011;6287;50.984;7.022;2023-06-26T09:12:36;4.60;;;2.58;;
12445;SDS011;6287;50.984;7.022;2023-06-26T09:15:02;4.50;;;2.42;;
12445;SDS011;6287;50.984;7.022;2023-06-26T09:17:30;4.28;;;2.72;;
12445;SDS011;6287;50.984;7.022;2023-06-26T09:20:01;3.05;;;2.33;;
12445;SDS011;6287;50.984;7.022;2023-06-26T09:22:29;4.68;;;2.38;;
12445;SDS011;6287;50.984;7.022;2023-06-26T09:25:02;4.22;;;2.53;;
12445;SDS011;6287;50.984;7.022;2023-06-26T09:27:28;3.08;;;2.30;;
12445;SDS011;6287;50.984;7.022;2023-06-26T09:29:55;4.78;;;2.58;;
12445;SDS011;6287;50.984;7.022;2023-06-26T09:32:24;4.32;;;2.42;;
12445;SDS011;6287;50.984;7.022;2023-06-26T09:34:51;3.67;;;2.35;;
12445;SDS011;6287;50.984;7.022;2023-06-26T09:37:23;4.95;;;2.90;;
12445;SDS011;6287;50.984;7.022;2023-06-26T09:39:50;3.70;;;2.28;;
12445;SDS011;6287;50.984;7.022;2023-06-26T09:42:16;6.47;;;2.55;;
12445;SDS011;6287;50.984;7.022;2023-06-26T09:44:45;2.33;;;2.08;;
12445;SDS011;6287;50.984;7.022;2023-06-26T09:47:15;2.85;;;2.38;;
12445;SDS011;6287;50.984;7.022;2023-06-26T09:49:43;6.22;;;2.22;;
12445;SDS011;6287;50.984;7.022;2023-06-26T09:52:09;2.95;;;1.92;;
12445;SDS011;6287;50.984;7.022;2023-06-26T09:54:42;3.95;;;2.50;;
12445;SDS011;6287;50.984;7.022;2023-06-26T09:57:10;4.78;;;2.63;;
12445;SDS011;6287;50.984;7.022;2023-06-26T09:59:38;3.63;;;2.60;;
12445;SDS011;6287;50.984;7.022;2023-06-26T10:02:05;6.03;;;2.40;;
12445;SDS011;6287;50.984;7.022;2023-06-26T10:04:31;4.00;;;2.20;;
12445;SDS011;6287;50.984;7.022;2023-06-26T10:06:58;3.55;;;2.08;;
12445;SDS011;6287;50.984;7.022;2023-06-26T10:09:26;4.20;;;2.30;;
12445;SDS011;6287;50.984;7.022;2023-06-26T10:11:58;2.28;;;1.70;;
12445;SDS011;6287;50.984;7.022;2023-06-26T10:14:31;4.40;;;2.33;;
12445;SDS011;6287;50.984;7.022;2023-06-26T10:17:03;2.03;;;1.80;;
12445;SDS011;6287;50.984;7.022;2023-06-26T10:19:31;4.28;;;2.22;;
12445;SDS011;6287;50.984;7.022;2023-06-26T10:22:02;3.92;;;1.70;;
12445;SDS011;6287;50.984;7.022;2023-06-26T10:24:33;3.95;;;2.10;;
12445;SDS011;6287;50.984;7.022;2023-06-26T10:27:03;2.83;;;1.80;;
12445;SDS011;6287;50.984;7.022;2023-06-26T10:29:38;2.90;;;1.77;;
12445;SDS011;6287;50.984;7.022;2023-06-26T10:32:05;2.97;;;1.98;;
12445;SDS011;6287;50.984;7.022;2023-06-26T10:34:33;2.95;;;1.80;;
12445;SDS011;6287;50.984;7.022;2023-06-26T10:37:00;2.30;;;1.85;;
12445;SDS011;6287;50.984;7.022;2023-06-26T10:39:45;4.88;;;1.98;;
12445;SDS011;6287;50.984;7.022;2023-06-26T10:42:19;4.22;;;2.00;;
12445;SDS011;6287;50.984;7.022;2023-06-26T10:44:53;3.55;;;1.75;;
12445;SDS011;6287;50.984;7.022;2023-06-26T11:01:19;2.42;;;1.52;;
12445;SDS011;6287;50.984;7.022;2023-06-26T11:06:29;1.92;;;1.50;;
12445;SDS011;6287;50.984;7.022;2023-06-26T11:14:19;2.40;;;2.00;;
12445;SDS011;6287;50.984;7.022;2023-06-26T11:16:48;1.00;;;0.95;;
12445;SDS011;6287;50.984;7.022;2023-06-26T11:19:14;3.22;;;1.20;;
12445;SDS011;6287;50.984;7.022;2023-06-26T11:21:42;3.47;;;1.60;;
12445;SDS011;6287;50.984;7.022;2023-06-26T11:24:09;3.00;;;1.25;;
12445;SDS011;6287;50.984;7.022;2023-06-26T11:29:05;1.75;;;1.30;;
12445;SDS011;6287;50.984;7.022;2023-06-26T11:31:31;4.43;;;1.50;;
12445;SDS011;6287;50.984;7.022;2023-06-26T11:33:59;4.00;;;1.40;;
12445;SDS011;6287;50.984;7.022;2023-06-26T11:36:27;1.45;;;1.30;;
12445;SDS011;6287;50.984;7.022;2023-06-26T11:38:53;2.33;;;1.42;;
12445;SDS011;6287;50.984;7.022;2023-06-26T11:41:23;4.22;;;1.55;;
12445;SDS011;6287;50.984;7.022;2023-06-26T11:43:51;3.33;;;1.50;;
12445;SDS011;6287;50.984;7.022;2023-06-26T11:46:20;4.78;;;1.95;;
12445;SDS011;6287;50.984;7.022;2023-06-26T11:48:47;1.35;;;1.25;;
12445;SDS011;6287;50.984;7.022;2023-06-26T11:51:14;1.60;;;1.35;;
12445;SDS011;6287;50.984;7.022;2023-06-26T11:53:46;2.78;;;1.27;;
12445;SDS011;6287;50.984;7.022;2023-06-26T11:56:15;1.52;;;1.17;;
12445;SDS011;6287;50.984;7.022;2023-06-26T12:04:00;2.25;;;1.08;;
12445;SDS011;6287;50.984;7.022;2023-06-26T12:06:29;1.58;;;1.35;;
12445;SDS011;6287;50.984;7.022;2023-06-26T12:08:56;2.13;;;0.90;;
12445;SDS011;6287;50.984;7.022;2023-06-26T12:11:27;1.38;;;1.05;;
12445;SDS011;6287;50.984;7.022;2023-06-26T12:13:54;1.35;;;1.15;;
12445;SDS011;6287;50.984;7.022;2023-06-26T12:16:23;1.15;;;1.10;;
12445;SDS011;6287;50.984;7.022;2023-06-26T12:18:49;2.72;;;1.33;;
12445;SDS011;6287;50.984;7.022;2023-06-26T12:24:14;1.65;;;1.08;;
12445;SDS011;6287;50.984;7.022;2023-06-26T12:26:46;2.15;;;1.02;;
12445;SDS011;6287;50.984;7.022;2023-06-26T12:29:15;2.08;;;1.10;;
12445;SDS011;6287;50.984;7.022;2023-06-26T12:31:48;2.60;;;1.25;;
12445;SDS011;6287;50.984;7.022;2023-06-26T12:34:18;1.10;;;1.02;;
12445;SDS011;6287;50.984;7.022;2023-06-26T12:36:46;3.45;;;1.30;;
12445;SDS011;6287;50.984;7.022;2023-06-26T12:39:21;2.67;;;1.10;;
12445;SDS011;6287;50.984;7.022;2023-06-26T12:41:54;1.38;;;1.10;;
12445;SDS011;6287;50.984;7.022;2023-06-26T12:44:25;4.03;;;1.10;;
12445;SDS011;6287;50.984;7.022;2023-06-26T12:46:58;4.95;;;1.50;;
12445;SDS011;6287;50.984;7.022;2023-06-26T12:51:59;2.38;;;1.20;;
12445;SDS011;6287;50.984;7.022;2023-06-26T12:54:28;3.60;;;1.00;;
12445;SDS011;6287;50.984;7.022;2023-06-26T12:56:56;2.13;;;1.20;;
12445;SDS011;6287;50.984;7.022;2023-06-26T12:59:22;2.65;;;1.00;;
12445;SDS011;6287;50.984;7.022;2023-06-26T13:01:50;3.75;;;0.93;;
12445;SDS011;6287;50.984;7.022;2023-06-26T13:04:16;1.65;;;0.82;;
12445;SDS011;6287;50.984;7.022;2023-06-26T13:06:42;2.08;;;0.95;;
12445;SDS011;6287;50.984;7.022;2023-06-26T13:09:09;3.05;;;0.88;;
12445;SDS011;6287;50.984;7.022;2023-06-26T13:11:37;3.13;;;0.80;;
12445;SDS011;6287;50.984;7.022;2023-06-26T13:14:10;2.60;;;0.90;;
12445;SDS011;6287;50.984;7.022;2023-06-26T13:16:40;2.45;;;0.73;;
12445;SDS011;6287;50.984;7.022;2023-06-26T13:19:08;2.67;;;0.70;;
12445;SDS011;6287;50.984;7.022;2023-06-26T13:21:35;0.85;;;0.80;;
12445;SDS011;6287;50.984;7.022;2023-06-26T13:24:03;2.15;;;0.90;;
12445;SDS011;6287;50.984;7.022;2023-06-26T13:26:32;1.80;;;0.50;;
12445;SDS011;6287;50.984;7.022;2023-06-26T13:29:00;1.13;;;0.40;;
12445;SDS011;6287;50.984;7.022;2023-06-26T13:31:29;1.02;;;0.52;;
12445;SDS011;6287;50.984;7.022;2023-06-26T13:33:58;3.03;;;0.88;;
12445;SDS011;6287;50.984;7.022;2023-06-26T13:36:35;1.00;;;0.70;;
12445;SDS011;6287;50.984;7.022;2023-06-26T13:39:02;1.35;;;0.55;;
12445;SDS011;6287;50.984;7.022;2023-06-26T13:41:28;1.20;;;0.60;;
12445;SDS011;6287;50.984;7.022;2023-06-26T13:43:56;0.77;;;0.50;;
12445;SDS011;6287;50.984;7.022;2023-06-26T13:46:26;0.63;;;0.63;;
12445;SDS011;6287;50.984;7.022;2023-06-26T13:48:52;2.03;;;1.13;;
12445;SDS011;6287;50.984;7.022;2023-06-26T13:51:18;1.55;;;0.80;;
12445;SDS011;6287;50.984;7.022;2023-06-26T13:53:43;4.47;;;0.85;;
12445;SDS011;6287;50.984;7.022;2023-06-26T13:56:11;2.20;;;0.68;;
12445;SDS011;6287;50.984;7.022;2023-06-26T13:58:39;1.73;;;0.70;;
12445;SDS011;6287;50.984;7.022;2023-06-26T14:01:07;2.60;;;0.75;;
12445;SDS011;6287;50.984;7.022;2023-06-26T14:03:35;0.93;;;0.80;;
12445;SDS011;6287;50.984;7.022;2023-06-26T14:06:03;1.05;;;0.80;;
12445;SDS011;6287;50.984;7.022;2023-06-26T14:08:29;1.88;;;1.08;;
12445;SDS011;6287;50.984;7.022;2023-06-26T14:10:55;2.97;;;0.90;;
12445;SDS011;6287;50.984;7.022;2023-06-26T14:13:20;2.05;;;0.68;;
12445;SDS011;6287;50.984;7.022;2023-06-26T14:15:51;1.60;;;0.57;;
12445;SDS011;6287;50.984;7.022;2023-06-26T14:18:17;3.22;;;0.73;;
12445;SDS011;6287;50.984;7.022;2023-06-26T14:20:48;3.17;;;1.02;;
12445;SDS011;6287;50.984;7.022;2023-06-26T14:23:14;4.78;;;1.00;;
12445;SDS011;6287;50.984;7.022;2023-06-26T14:25:42;2.42;;;0.73;;
12445;SDS011;6287;50.984;7.022;2023-06-26T14:28:07;2.15;;;1.00;;
12445;SDS011;6287;50.984;7.022;2023-06-26T14:30:33;1.65;;;0.73;;
12445;SDS011;6287;50.984;7.022;2023-06-26T14:32:59;1.58;;;1.10;;
12445;SDS011;6287;50.984;7.022;2023-06-26T14:35:24;4.78;;;1.00;;
12445;SDS011;6287;50.984;7.022;2023-06-26T14:37:50;1.38;;;0.73;;
12445;SDS011;6287;50.984;7.022;2023-06-26T14:40:21;1.38;;;0.90;;
12445;SDS011;6287;50.984;7.022;2023-06-26T14:42:46;0.88;;;0.77;;
12445;SDS011;6287;50.984;7.022;2023-06-26T14:45:12;0.60;;;0.60;;
12445;SDS011;6287;50.984;7.022;2023-06-26T14:47:40;1.23;;;0.80;;
12445;SDS011;6287;50.984;7.022;2023-06-26T14:50:07;3.40;;;0.80;;
12445;SDS011;6287;50.984;7.022;2023-06-26T14:52:38;1.98;;;0.80;;
12445;SDS011;6287;50.984;7.022;2023-06-26T14:55:04;2.05;;;0.73;;
12445;SDS011;6287;50.984;7.022;2023-06-26T14:57:35;1.80;;;0.90;;
12445;SDS011;6287;50.984;7.022;2023-06-26T15:00:03;1.75;;;1.00;;
12445;SDS011;6287;50.984;7.022;2023-06-26T15:02:31;2.03;;;0.70;;
12445;SDS011;6287;50.984;7.022;2023-06-26T15:04:57;2.28;;;0.70;;
12445;SDS011;6287;50.984;7.022;2023-06-26T15:07:25;2.80;;;0.90;;
12445;SDS011;6287;50.984;7.022;2023-06-26T15:09:51;1.55;;;0.88;;
12445;SDS011;6287;50.984;7.022;2023-06-26T15:12:19;3.95;;;0.93;;
12445;SDS011;6287;50.984;7.022;2023-06-26T15:14:48;1.33;;;0.80;;
12445;SDS011;6287;50.984;7.022;2023-06-26T15:17:17;2.55;;;1.00;;
12445;SDS011;6287;50.984;7.022;2023-06-26T15:19:44;1.23;;;0.80;;
12445;SDS011;6287;50.984;7.022;2023-06-26T15:22:12;2.22;;;0.88;;
12445;SDS011;6287;50.984;7.022;2023-06-26T15:24:39;1.52;;;0.82;;
12445;SDS011;6287;50.984;7.022;2023-06-26T15:27:05;0.77;;;0.73;;
12445;SDS011;6287;50.984;7.022;2023-06-26T15:29:33;3.63;;;0.93;;
12445;SDS011;6287;50.984;7.022;2023-06-26T15:31:58;2.10;;;0.82;;
12445;SDS011;6287;50.984;7.022;2023-06-26T15:34:24;0.65;;;0.65;;
12445;SDS011;6287;50.984;7.022;2023-06-26T15:36:54;2.45;;;0.80;;
12445;SDS011;6287;50.984;7.022;2023-06-26T15:39:19;0.82;;;0.77;;
12445;SDS011;6287;50.984;7.022;2023-06-26T15:41:48;0.90;;;0.82;;
12445;SDS011;6287;50.984;7.022;2023-06-26T15:44:17;2.13;;;0.70;;
12445;SDS011;6287;50.984;7.022;2023-06-26T15:46:45;0.80;;;0.70;;